WetterOnline ( https://www.wetteronline.de )

Wetter aktuell Regensburg

Aktuelles Wetter: Regensburg/Oberhub (371m)

6-stündlich | Neueste Meldungen
Ortszeit Temperatur Wetter
Sa, 13.08. 8:00 12.8° C bewölkt
Sa, 13.08. 2:00 12.7° C fast wolkenlos
Fr, 12.08. 20:00 17.5° C wolkig
Fr, 12.08. 14:00 25.8° C leicht bewölkt
Fr, 12.08. 8:00 14.2° C wolkenlos
Fr, 12.08. 2:00 15.5° C wolkenlos
Do, 11.08. 20:00 24.3° C wolkenlos
Do, 11.08. 14:00 28.8° C wolkenlos
Ortszeit Temperatur Wetter
Sa, 13.08. 8:30 14.5° C wolkig
Sa, 13.08. 8:20 14.5° C wolkig
Sa, 13.08. 8:10 13.7° C bewölkt
Sa, 13.08. 8:00 12.8° C bewölkt
Sa, 13.08. 7:50 12.8° C bewölkt
Sa, 13.08. 7:40 12.6° C bedeckt
Sa, 13.08. 7:30 11.8° C bewölkt
Sa, 13.08. 7:00 10.8° C bedeckt
Sa, 13.08. 6:30 10.5° C wolkig
Sa, 13.08. 6:00 10.6° C wolkig
Sa, 13.08. 5:30 10.8° C leicht bewölkt
Ortszeit Relative Feuchte Sichtweite
Sa, 13.08. 8:00 86% 60 km
Sa, 13.08. 2:00 94% 35 km
Fr, 12.08. 20:00 78% >70 km
Fr, 12.08. 14:00 31% >70 km
Fr, 12.08. 8:00 68% 65 km
Fr, 12.08. 2:00 60% 65 km
Do, 11.08. 20:00 32% >70 km
Do, 11.08. 14:00 24% >70 km
Ortszeit Relative Feuchte Sichtweite
Sa, 13.08. 8:30 77% 60 km
Sa, 13.08. 8:20 77% -
Sa, 13.08. 8:10 82% -
Sa, 13.08. 8:00 86% 60 km
Sa, 13.08. 7:50 86% -
Sa, 13.08. 7:40 86% -
Sa, 13.08. 7:30 91% 55 km
Sa, 13.08. 7:00 93% 40 km
Sa, 13.08. 6:30 93% 45 km
Sa, 13.08. 6:00 93% 45 km
Sa, 13.08. 5:30 94% 45 km
Ortszeit Niederschlagsmenge Niederschlagsart
Sa, 13.08. 8:00 0.0 l/m2 in 12 Std. -
Sa, 13.08. 2:00 0.0 l/m2 in 6 Std. -
Fr, 12.08. 20:00 1 l/m2 in 12 Std. Regen
Fr, 12.08. 14:00 0.0 l/m2 in 6 Std. -
Fr, 12.08. 8:00 0.0 l/m2 in 12 Std. -
Fr, 12.08. 2:00 0.0 l/m2 in 6 Std. -
Do, 11.08. 20:00 0.0 l/m2 in 12 Std. -
Do, 11.08. 14:00 0.0 l/m2 in 6 Std. -
Ortszeit Niederschlagsmenge Niederschlagsart
Sa, 13.08. 8:30 0.0 l/m2 in 1 Std. -
Sa, 13.08. 8:20 keine Meldung -
Sa, 13.08. 8:10 keine Meldung -
Sa, 13.08. 8:00 0.0 l/m2 in 1 Std. -
Sa, 13.08. 7:50 keine Meldung -
Sa, 13.08. 7:40 keine Meldung -
Sa, 13.08. 7:30 0.0 l/m2 in 1 Std. -
Sa, 13.08. 7:00 0.0 l/m2 in 1 Std. -
Sa, 13.08. 6:30 0.0 l/m2 in 1 Std. -
Sa, 13.08. 6:00 0.0 l/m2 in 1 Std. -
Sa, 13.08. 5:30 0.0 l/m2 in 1 Std. -
Ortszeit Stärke Spitze Richtung
km/h Bft. km/h Grad Sektor
Sa, 13.08. 8:00 7 2 15 360° N
Sa, 13.08. 2:00 6 1 11 30° NO
Fr, 12.08. 20:00 6 1 31 70° O
Fr, 12.08. 14:00 13 3 43 50° NO
Fr, 12.08. 8:00 7 2 14 350° N
Fr, 12.08. 2:00 7 2 22 360° N
Do, 11.08. 20:00 11 2 32 60° NO
Do, 11.08. 14:00 17 3 31 40° NO
Ortszeit Stärke Spitze Richtung
km/h Bft. km/h Grad Sektor
Sa, 13.08. 8:30 7 2 18 360° N
Sa, 13.08. 8:20 7 2 - 360° N
Sa, 13.08. 8:10 7 2 - 360° N
Sa, 13.08. 8:00 7 2 15 360° N
Sa, 13.08. 7:50 7 2 - 360° N
Sa, 13.08. 7:40 7 2 - 360° N
Sa, 13.08. 7:30 7 2 13 360° N
Sa, 13.08. 7:00 6 1 9 360° N
Sa, 13.08. 6:30 6 1 7 10° N
Sa, 13.08. 6:00 7 2 7 20° N
Sa, 13.08. 5:30 6 1 7 10° N
Ortszeit Untergrenze Bedeckung Gattung
total tief tief mittel hoch
Sa, 13.08. 8:00 6300 m 8/8 7/8 - - -
Sa, 13.08. 2:00 9000 m 1/8 0/8 - - -
Fr, 12.08. 20:00 6000 m 6/8 5/8 - - -
Fr, 12.08. 14:00 1800 m 4/8 3/8 - - -
Fr, 12.08. 8:00 - 0/8 0/8 - - -
Fr, 12.08. 2:00 - 0/8 0/8 - - -
Do, 11.08. 20:00 - 0/8 0/8 - - -
Do, 11.08. 14:00 - 0/8 0/8 - - -
Ortszeit Bedeckungsgrad in Achtel und Wolkenuntergrenze
Sa, 13.08. 8:30 2(6600m) 7(8400m) 7(9000m)
Sa, 13.08. 8:20 2(6600m) 7(8400m) 7(9000m)
Sa, 13.08. 8:10 7
Sa, 13.08. 8:00 6(6300m) 7(6900m) 8(9000m)
Sa, 13.08. 7:50 6(6300m) 7(6900m) 8(9000m)
Sa, 13.08. 7:40 8
Sa, 13.08. 7:30 6(6300m) 8(7200m) 8(9000m)
Sa, 13.08. 7:00 8(6000m)
Sa, 13.08. 6:30 3(6300m) 8(7800m) 8(9000m)
Sa, 13.08. 6:00 6(8400m) 8(9000m) 8(9000m)
Sa, 13.08. 5:30 6(9000m) 6(9000m)
Ortszeit Luftdruck NN (hPa) Tendenz (hPa in 3 Std.)
Sa, 13.08. 8:00 1018 0,0
Sa, 13.08. 2:00 1019 - 0,4
Fr, 12.08. 20:00 1018 + 0,4
Fr, 12.08. 14:00 1017 - 1,3
Fr, 12.08. 8:00 1020 + 0,3
Fr, 12.08. 2:00 1020 0,0
Do, 11.08. 20:00 1018 - 0,5
Do, 11.08. 14:00 1019 - 1,5
Ortszeit Luftdruck NN (hPa) Tendenz (hPa in 3 Std.)
Sa, 13.08. 8:30 1017 + 0,1
Sa, 13.08. 8:20 1017 keine Meldung
Sa, 13.08. 8:10 1017 keine Meldung
Sa, 13.08. 8:00 1018 0,0
Sa, 13.08. 7:50 1018 keine Meldung
Sa, 13.08. 7:40 1018 keine Meldung
Sa, 13.08. 7:30 1018 - 0,1
Sa, 13.08. 7:00 1018 - 0,5
Sa, 13.08. 6:30 1018 - 0,6
Sa, 13.08. 6:00 1018 - 0,7
Sa, 13.08. 5:30 1018 - 1,0
Ortszeit Schneehöhe (cm)
Sa, 13.08. 8:00 0
Sa, 13.08. 2:00 0
Fr, 12.08. 20:00 0
Fr, 12.08. 14:00 0
Fr, 12.08. 8:00 0
Fr, 12.08. 2:00 0
Do, 11.08. 20:00 0
Do, 11.08. 14:00 0
Ortszeit Schneehöhe (cm)
Sa, 13.08. 8:30 0
Sa, 13.08. 8:20 0
Sa, 13.08. 8:10 0
Sa, 13.08. 8:00 0
Sa, 13.08. 7:50 0
Sa, 13.08. 7:40 0
Sa, 13.08. 7:30 0
Sa, 13.08. 7:00 0
Sa, 13.08. 6:30 0
Sa, 13.08. 6:00 0
Sa, 13.08. 5:30 0
Link zu dieser Seite / Seite empfehlen

Das Wetter in ...